Time;durP1;ratioP1;P1;durP2;ratioP2;P2;SDS_P1;SDS_P2;PMS_P1;PMS_P2;Temp;Humidity;BMP_temperature;BMP_pressure;BME280_temperature;BME280_humidity;BME280_pressure;Samples;Min_cycle;Max_cycle;Signal;HPM_P1;HPM_P2
2023/12/10 00:00:09;;;;;;;1.90;1.13;;;;;;;4.60;100.00;98740.69;5175188;28;20403;-75
2023/12/10 00:02:39;;;;;;;1.50;0.93;;;;;;;4.60;100.00;98742.47;5175123;28;20427;-75
2023/12/10 00:05:09;;;;;;;1.60;0.98;;;;;;;4.63;100.00;98750.91;5171489;28;20045;-72
2023/12/10 00:07:40;;;;;;;1.73;1.00;;;;;;;4.57;100.00;98746.00;5171079;28;20029;-75
2023/12/10 00:10:10;;;;;;;2.25;1.10;;;;;;;4.71;100.00;98748.00;5176491;28;20030;-75
2023/12/10 00:12:40;;;;;;;3.72;1.05;;;;;;;4.65;100.00;98746.50;5176832;28;20116;-75
2023/12/10 00:15:11;;;;;;;2.50;1.10;;;;;;;4.58;100.00;98762.34;5176494;28;20049;-75
2023/12/10 00:17:41;;;;;;;1.88;1.02;;;;;;;4.67;100.00;98767.16;5175574;28;20037;-74
2023/12/10 00:20:12;;;;;;;2.47;1.35;;;;;;;4.70;100.00;98765.28;5175091;28;20040;-75
2023/12/10 00:22:42;;;;;;;1.88;0.85;;;;;;;4.74;100.00;98777.19;5165978;28;20030;-73
2023/12/10 00:25:13;;;;;;;2.33;1.10;;;;;;;4.72;100.00;98791.09;5167127;28;20029;-75
2023/12/10 00:27:43;;;;;;;1.77;1.00;;;;;;;4.78;100.00;98783.91;5176980;28;20284;-76
2023/12/10 00:30:14;;;;;;;1.42;0.82;;;;;;;4.80;100.00;98784.69;5175996;28;20433;-74
2023/12/10 00:32:44;;;;;;;1.67;0.90;;;;;;;4.74;100.00;98779.78;5175934;28;20447;-76
2023/12/10 00:35:15;;;;;;;2.13;1.00;;;;;;;4.86;100.00;98787.03;5176206;28;20038;-75
2023/12/10 00:37:45;;;;;;;1.73;0.93;;;;;;;4.86;100.00;98799.13;5176837;28;20490;-75
2023/12/10 00:40:16;;;;;;;1.85;1.15;;;;;;;4.93;100.00;98800.53;5176625;28;20037;-74
2023/12/10 00:42:46;;;;;;;4.13;1.05;;;;;;;4.93;100.00;98801.41;5176435;28;20415;-76
2023/12/10 00:45:16;;;;;;;2.05;1.08;;;;;;;4.89;100.00;98794.69;5175821;28;20038;-75
2023/12/10 00:47:47;;;;;;;1.92;0.95;;;;;;;4.93;100.00;98798.81;5163217;28;20021;-75
2023/12/10 00:50:18;;;;;;;1.55;0.88;;;;;;;4.87;100.00;98790.47;5176183;28;20060;-75
2023/12/10 00:52:48;;;;;;;1.50;0.90;;;;;;;4.81;100.00;98801.91;5163643;28;20476;-75
2023/12/10 00:55:18;;;;;;;1.33;0.80;;;;;;;4.89;100.00;98815.38;5176125;28;20688;-74
2023/12/10 00:57:49;;;;;;;1.30;0.80;;;;;;;4.86;100.00;98814.66;5170755;28;20045;-75
2023/12/10 01:00:19;;;;;;;2.03;1.10;;;;;;;4.98;100.00;98825.34;5176178;28;20511;-73
2023/12/10 01:02:49;;;;;;;2.13;1.20;;;;;;;4.85;100.00;98821.59;5157603;22;20059;-73
2023/12/10 01:05:20;;;;;;;1.80;0.80;;;;;;;4.85;100.00;98818.16;5109845;28;20031;-75
2023/12/10 01:07:50;;;;;;;1.65;0.70;;;;;;;4.75;100.00;98829.75;5111189;28;20110;-74
2023/12/10 01:10:21;;;;;;;1.15;0.77;;;;;;;4.70;100.00;98831.69;5121708;28;20026;-73
2023/12/10 01:12:52;;;;;;;1.65;0.70;;;;;;;4.75;100.00;98833.19;5110095;28;20055;-72
2023/12/10 01:15:32;;;;;;;4.03;1.00;;;;;;;4.74;100.00;98834.09;5111178;28;20062;-74
2023/12/10 01:18:02;;;;;;;1.95;0.90;;;;;;;4.74;100.00;98839.28;5111268;28;20408;-75
2023/12/10 01:20:33;;;;;;;1.15;0.60;;;;;;;4.77;100.00;98853.84;5113383;28;20101;-74
2023/12/10 01:23:04;;;;;;;2.08;1.10;;;;;;;4.77;100.00;98848.69;5116164;28;20079;-75
2023/12/10 01:25:37;;;;;;;2.03;0.90;;;;;;;4.77;100.00;98846.09;5115093;28;20148;-75
2023/12/10 01:28:11;;;;;;;2.63;0.90;;;;;;;4.78;100.00;98853.78;5114458;28;20023;-74
2023/12/10 01:30:41;;;;;;;2.67;0.98;;;;;;;4.76;100.00;98853.00;5110895;28;20062;-75
2023/12/10 01:33:11;;;;;;;1.85;0.98;;;;;;;4.79;100.00;98858.03;5113263;28;20484;-75
2023/12/10 01:35:42;;;;;;;2.08;0.90;;;;;;;4.88;100.00;98869.78;5111469;28;20500;-74
2023/12/10 01:38:12;;;;;;;5.50;1.00;;;;;;;4.94;100.00;98870.38;5110642;28;20498;-74
2023/12/10 01:40:43;;;;;;;1.80;0.90;;;;;;;4.95;100.00;98882.41;5108199;28;20027;-74
2023/12/10 01:43:17;;;;;;;3.58;1.25;;;;;;;5.12;100.00;98890.31;5109781;28;20098;-74
2023/12/10 01:45:50;;;;;;;3.17;1.40;;;;;;;5.26;100.00;98880.25;5109408;28;20023;-74
2023/12/10 01:48:23;;;;;;;5.50;1.63;;;;;;;5.38;100.00;98882.34;5112926;28;20031;-74
2023/12/10 01:50:53;;;;;;;7.30;2.05;;;;;;;5.42;100.00;98897.66;5109689;28;20474;-74
2023/12/10 01:53:24;;;;;;;7.03;2.10;;;;;;;5.50;100.00;98895.63;5104723;28;20019;-74
2023/12/10 01:55:55;;;;;;;11.57;2.63;;;;;;;5.62;100.00;98896.84;5111092;28;20453;-73
2023/12/10 01:58:29;;;;;;;9.90;2.75;;;;;;;5.74;100.00;98898.91;5112450;28;20092;-74
2023/12/10 02:01:00;;;;;;;15.93;3.33;;;;;;;5.82;100.00;98900.31;5114535;28;20031;-74
2023/12/10 02:03:32;;;;;;;14.35;3.30;;;;;;;6.00;100.00;98901.22;5114981;28;20027;-73
2023/12/10 02:06:03;;;;;;;13.32;3.70;;;;;;;6.07;100.00;98900.91;5115784;28;20051;-75
2023/12/10 02:08:33;;;;;;;14.30;3.47;;;;;;;6.07;100.00;98905.25;5115517;28;20047;-75
2023/12/10 02:11:04;;;;;;;11.88;2.78;;;;;;;6.16;100.00;98907.44;5112960;28;20039;-74
2023/12/10 02:13:35;;;;;;;13.10;3.38;;;;;;;6.21;100.00;98915.84;5111761;28;20485;-75
2023/12/10 02:16:07;;;;;;;15.63;3.25;;;;;;;6.29;100.00;98916.34;5110981;28;20114;-74
2023/12/10 02:18:37;;;;;;;11.90;3.22;;;;;;;6.31;100.00;98920.56;5112949;28;20489;-75
2023/12/10 02:21:09;;;;;;;13.52;3.63;;;;;;;6.39;100.00;98925.41;5115799;28;20098;-75
2023/12/10 02:23:55;;;;;;;17.27;3.92;;;;;;;6.59;100.00;98936.53;5115551;28;20536;-75
2023/12/10 02:26:25;;;;;;;23.85;3.75;;;;;;;6.64;100.00;98941.53;5113974;28;20456;-75
2023/12/10 02:28:56;;;;;;;25.08;3.58;;;;;;;6.71;100.00;98936.00;5115992;28;20035;-74
2023/12/10 02:31:26;;;;;;;15.75;3.55;;;;;;;6.79;100.00;98938.25;5114773;28;20126;-74
2023/12/10 02:33:56;;;;;;;18.30;2.90;;;;;;;6.84;100.00;98947.50;5115902;28;20150;-74
2023/12/10 02:36:27;;;;;;;22.55;3.50;;;;;;;6.82;100.00;98958.84;5111276;28;20657;-74
2023/12/10 02:38:57;;;;;;;16.63;2.97;;;;;;;6.82;100.00;98951.94;5104965;28;20374;-74
2023/12/10 02:41:28;;;;;;;17.15;3.13;;;;;;;6.84;100.00;98964.81;5106596;28;20500;-74
2023/12/10 02:43:58;;;;;;;22.55;3.33;;;;;;;6.89;100.00;98957.66;5110480;28;20345;-74
2023/12/10 02:46:28;;;;;;;19.30;3.20;;;;;;;6.90;100.00;98961.94;5097861;28;20054;-74
2023/12/10 02:48:59;;;;;;;16.08;2.92;;;;;;;6.87;100.00;98967.25;5108482;28;20023;-74
2023/12/10 02:51:29;;;;;;;18.90;2.88;;;;;;;6.88;100.00;98968.94;5109609;28;20507;-74
2023/12/10 02:53:59;;;;;;;17.33;2.65;;;;;;;6.93;100.00;98969.59;5107364;28;20031;-75
2023/12/10 02:56:30;;;;;;;18.25;2.55;;;;;;;6.86;100.00;98975.97;5112428;28;20227;-75
2023/12/10 02:59:00;;;;;;;21.40;2.75;;;;;;;6.83;100.00;98976.13;5107749;28;20265;-74
2023/12/10 03:01:31;;;;;;;27.27;3.38;;;;;;;6.91;100.00;98987.00;5103465;28;20512;-74
2023/12/10 03:04:01;;;;;;;25.05;2.85;;;;;;;6.96;100.00;98995.41;5110335;28;20520;-74
2023/12/10 03:06:31;;;;;;;15.77;2.33;;;;;;;6.91;100.00;98994.78;5099156;28;20462;-74
2023/12/10 03:09:02;;;;;;;25.42;3.10;;;;;;;6.92;100.00;98996.47;5109715;28;20394;-73
2023/12/10 03:11:32;;;;;;;24.60;3.20;;;;;;;6.91;100.00;99000.00;5105341;28;20055;-74
2023/12/10 03:14:04;;;;;;;23.67;2.65;;;;;;;6.89;100.00;98996.59;5110828;28;20401;-73
2023/12/10 03:16:34;;;;;;;21.02;3.45;;;;;;;6.90;100.00;99000.91;5106399;28;20036;-74
2023/12/10 03:19:05;;;;;;;23.30;2.40;;;;;;;6.92;100.00;99002.50;5109757;28;20046;-74
2023/12/10 03:21:35;;;;;;;24.85;2.78;;;;;;;6.92;100.00;98999.06;5107880;28;20048;-75
2023/12/10 03:24:05;;;;;;;25.83;3.78;;;;;;;6.92;100.00;98997.31;5112515;28;20039;-75
2023/12/10 03:26:36;;;;;;;23.23;3.47;;;;;;;6.92;100.00;98999.06;5108521;28;20477;-75
2023/12/10 03:29:06;;;;;;;37.88;4.22;;;;;;;6.91;100.00;99005.19;5107482;28;20223;-74
2023/12/10 03:31:37;;;;;;;33.00;3.85;;;;;;;6.91;100.00;98995.63;5110741;28;20068;-74
2023/12/10 03:34:07;;;;;;;27.90;3.20;;;;;;;6.82;100.00;98996.06;5111263;28;20502;-74
2023/12/10 03:36:37;;;;;;;29.60;3.70;;;;;;;6.82;100.00;99008.19;5112337;28;20396;-74
2023/12/10 03:39:08;;;;;;;22.77;2.75;;;;;;;6.76;100.00;99021.44;5117170;28;20119;-75
2023/12/10 03:41:38;;;;;;;37.30;3.75;;;;;;;6.81;100.00;99024.66;5107699;28;20031;-75
2023/12/10 03:44:09;;;;;;;27.83;3.42;;;;;;;6.79;100.00;99023.91;5109353;28;20562;-75
2023/12/10 03:46:39;;;;;;;23.35;3.50;;;;;;;6.83;100.00;99028.91;5111744;28;20040;-75
2023/12/10 03:49:10;;;;;;;26.92;3.53;;;;;;;6.74;100.00;99025.88;5115900;28;20039;-73
2023/12/10 03:51:40;;;;;;;28.08;3.58;;;;;;;6.69;100.00;99025.22;5110751;28;20034;-75
2023/12/10 03:54:10;;;;;;;28.38;3.75;;;;;;;6.69;100.00;99033.00;5113695;28;20023;-74
2023/12/10 03:56:41;;;;;;;35.63;3.78;;;;;;;6.64;100.00;99019.41;5111556;28;20030;-75
2023/12/10 03:59:11;;;;;;;20.58;2.88;;;;;;;6.62;100.00;99031.59;5115225;28;20098;-75
2023/12/10 04:01:42;;;;;;;31.02;3.65;;;;;;;6.67;100.00;99032.22;5113735;28;20023;-74
2023/12/10 04:04:13;;;;;;;31.13;4.68;;;;;;;6.71;100.00;99029.44;5116149;28;20117;-75
2023/12/10 04:06:43;;;;;;;36.83;4.70;;;;;;;6.68;100.00;99032.16;5117750;28;20115;-74
2023/12/10 04:09:13;;;;;;;23.95;3.83;;;;;;;6.72;100.00;99031.13;5117972;28;20094;-74
2023/12/10 04:11:44;;;;;;;27.83;3.65;;;;;;;6.68;100.00;99033.91;5117227;28;20118;-74
2023/12/10 04:14:14;;;;;;;24.20;3.90;;;;;;;6.80;100.00;99033.38;5113829;28;20086;-75
2023/12/10 04:16:45;;;;;;;25.60;4.43;;;;;;;6.82;100.00;99036.75;5118878;28;20031;-74
2023/12/10 04:19:15;;;;;;;30.42;3.90;;;;;;;6.90;100.00;99050.22;5117929;28;20031;-74
2023/12/10 04:21:45;;;;;;;31.90;4.47;;;;;;;6.90;100.00;99045.03;5115531;28;20023;-75
2023/12/10 04:24:16;;;;;;;26.15;4.40;;;;;;;6.87;100.00;99045.16;5116494;28;20038;-74
2023/12/10 04:26:46;;;;;;;26.33;4.07;;;;;;;6.89;100.00;99051.97;5122604;28;20067;-73
2023/12/10 04:29:16;;;;;;;17.08;3.92;;;;;;;6.83;100.00;99047.06;5117326;28;20050;-74
2023/12/10 04:31:47;;;;;;;23.52;3.80;;;;;;;7.01;100.00;99051.44;5116907;28;20031;-74
2023/12/10 04:34:17;;;;;;;28.27;4.38;;;;;;;6.94;100.00;99059.56;5117328;28;20030;-74
2023/12/10 04:36:48;;;;;;;23.50;4.32;;;;;;;6.97;100.00;99060.25;5117634;28;20031;-74
2023/12/10 04:39:19;;;;;;;22.45;4.57;;;;;;;7.05;100.00;99060.75;5113071;28;20132;-74
2023/12/10 04:41:49;;;;;;;31.35;4.32;;;;;;;7.07;100.00;99058.91;5114217;28;20354;-74
2023/12/10 04:44:19;;;;;;;33.63;5.13;;;;;;;7.18;100.00;99063.63;5113274;28;20296;-75
2023/12/10 04:46:51;;;;;;;28.25;4.00;;;;;;;7.22;100.00;99052.16;5112823;28;20031;-73
2023/12/10 04:49:21;;;;;;;26.80;3.97;;;;;;;7.21;100.00;99063.47;5115238;28;20106;-73
2023/12/10 04:51:52;;;;;;;29.98;3.90;;;;;;;7.28;100.00;99063.13;5117142;28;20466;-73
2023/12/10 04:54:22;;;;;;;29.13;3.70;;;;;;;7.29;100.00;99067.41;5115309;28;20031;-72
2023/12/10 04:56:52;;;;;;;19.38;3.13;;;;;;;7.31;100.00;99069.03;5118345;28;20035;-72
2023/12/10 04:59:23;;;;;;;29.15;4.10;;;;;;;7.31;100.00;99053.44;5114642;28;20524;-72
2023/12/10 05:01:53;;;;;;;24.88;3.55;;;;;;;7.41;100.00;99078.09;5114585;28;20509;-72
2023/12/10 05:04:23;;;;;;;28.77;3.47;;;;;;;7.33;100.00;99068.97;5111963;28;20402;-73
2023/12/10 05:06:54;;;;;;;29.98;3.47;;;;;;;7.41;100.00;99069.44;5112508;28;20127;-73
2023/12/10 05:09:24;;;;;;;23.40;3.80;;;;;;;7.48;100.00;99063.88;5117439;28;20098;-72
2023/12/10 05:11:54;;;;;;;24.15;3.45;;;;;;;7.43;100.00;99073.66;5114892;28;20046;-73
2023/12/10 05:14:25;;;;;;;29.63;4.70;;;;;;;7.40;100.00;99073.81;5112821;28;20035;-71
2023/12/10 05:16:55;;;;;;;20.63;3.33;;;;;;;7.41;100.00;99075.50;5118206;28;20445;-72
2023/12/10 05:19:25;;;;;;;28.75;3.70;;;;;;;7.53;100.00;99074.91;5117137;28;20035;-72
2023/12/10 05:21:56;;;;;;;24.33;3.67;;;;;;;7.53;100.00;99079.28;5116456;28;20523;-71
2023/12/10 05:24:26;;;;;;;21.83;2.78;;;;;;;7.50;100.00;99077.66;5114228;28;20481;-73
2023/12/10 05:26:57;;;;;;;18.05;2.67;;;;;;;7.59;100.00;99074.63;5118241;28;20559;-72
2023/12/10 05:29:27;;;;;;;26.65;3.20;;;;;;;7.65;100.00;99081.25;5112750;28;20023;-72
2023/12/10 05:31:58;;;;;;;24.35;2.90;;;;;;;7.68;100.00;99084.56;5117682;28;20023;-72
2023/12/10 05:34:28;;;;;;;18.15;2.42;;;;;;;7.62;100.00;99076.22;5118497;28;20386;-73
2023/12/10 05:36:58;;;;;;;25.23;3.17;;;;;;;7.61;100.00;99077.13;5117676;28;20065;-71
2023/12/10 05:39:29;;;;;;;24.65;2.80;;;;;;;7.64;100.00;99075.25;5114812;28;20523;-71
2023/12/10 05:41:59;;;;;;;19.13;3.33;;;;;;;7.63;100.00;99075.31;5116328;28;20445;-71
2023/12/10 05:44:30;;;;;;;17.13;3.05;;;;;;;7.59;100.00;99079.81;5116428;28;20360;-71
2023/12/10 05:47:00;;;;;;;20.33;3.50;;;;;;;7.68;100.00;99078.53;5114146;28;20046;-71
2023/12/10 05:49:30;;;;;;;21.77;3.42;;;;;;;7.62;100.00;99078.81;5113018;28;20038;-72
2023/12/10 05:52:01;;;;;;;17.98;2.60;;;;;;;7.57;100.00;99073.84;5113052;28;20027;-72
2023/12/10 05:54:31;;;;;;;19.00;2.88;;;;;;;7.56;100.00;99073.91;5114940;28;20034;-72
2023/12/10 05:57:01;;;;;;;17.88;2.42;;;;;;;7.50;100.00;99075.03;5114497;28;20031;-72
2023/12/10 05:59:32;;;;;;;20.85;3.45;;;;;;;7.47;100.00;99079.53;5114574;28;20259;-72
2023/12/10 06:02:02;;;;;;;16.33;3.03;;;;;;;7.60;100.00;99078.91;5114851;28;20034;-71
2023/12/10 06:04:33;;;;;;;16.58;3.08;;;;;;;7.59;100.00;99078.97;5113961;28;20030;-71
2023/12/10 06:07:03;;;;;;;23.23;3.28;;;;;;;7.58;100.00;99085.94;5115207;28;20316;-71
2023/12/10 06:09:34;;;;;;;16.23;2.53;;;;;;;7.56;100.00;99085.16;5113826;28;20377;-71
2023/12/10 06:12:05;;;;;;;17.73;2.63;;;;;;;7.67;100.00;99088.09;5116684;28;20126;-70
2023/12/10 06:14:35;;;;;;;13.68;3.25;;;;;;;7.61;100.00;99087.53;5115055;28;20529;-72
2023/12/10 06:17:05;;;;;;;16.55;3.15;;;;;;;7.61;100.00;99087.53;5116391;28;20397;-70
2023/12/10 06:19:36;;;;;;;18.42;3.13;;;;;;;7.59;100.00;99092.81;5115801;28;20059;-71
2023/12/10 06:22:06;;;;;;;19.38;2.95;;;;;;;7.62;100.00;99104.81;5113226;28;20027;-71
2023/12/10 06:24:36;;;;;;;20.63;2.95;;;;;;;7.72;100.00;99101.69;5113879;28;20314;-71
2023/12/10 06:27:07;;;;;;;17.17;2.88;;;;;;;7.76;100.00;99102.41;5115481;28;20074;-72
2023/12/10 06:29:37;;;;;;;17.00;2.60;;;;;;;7.69;100.00;99107.06;5114053;28;20022;-72
2023/12/10 06:32:08;;;;;;;20.70;2.83;;;;;;;7.67;100.00;99108.88;5115190;28;20094;-71
2023/12/10 06:34:38;;;;;;;20.23;3.05;;;;;;;7.78;100.00;99121.38;5112570;28;20066;-71
2023/12/10 06:37:08;;;;;;;15.55;2.55;;;;;;;7.74;100.00;99125.88;5115384;28;20052;-72
2023/12/10 06:39:39;;;;;;;18.60;2.97;;;;;;;7.78;100.00;99121.38;5112846;28;20031;-71
2023/12/10 06:42:09;;;;;;;13.98;2.92;;;;;;;7.76;100.00;99128.41;5113049;28;20390;-71
2023/12/10 06:44:39;;;;;;;18.23;3.80;;;;;;;7.68;100.00;99136.56;5112997;28;20518;-72
2023/12/10 06:47:11;;;;;;;12.98;2.53;;;;;;;7.70;100.00;99150.34;5114632;28;20097;-72
2023/12/10 06:49:41;;;;;;;18.08;2.60;;;;;;;7.78;100.00;99137.84;5114392;28;20410;-71
2023/12/10 06:52:12;;;;;;;18.95;3.28;;;;;;;7.70;100.00;99154.72;5113857;28;20050;-73
2023/12/10 06:54:42;;;;;;;31.77;7.20;;;;;;;7.72;100.00;99153.69;5113610;28;20449;-71
2023/12/10 06:57:12;;;;;;;26.90;5.80;;;;;;;7.81;100.00;99163.69;5115619;28;20489;-71
2023/12/10 06:59:43;;;;;;;20.77;4.22;;;;;;;7.77;100.00;99156.94;5108755;28;20521;-71
2023/12/10 07:02:13;;;;;;;13.15;3.58;;;;;;;7.82;100.00;99162.78;5133357;22;20029;-77
2023/12/10 07:04:44;;;;;;;14.63;2.60;;;;;;;7.86;100.00;99161.69;5139354;28;20146;-78
2023/12/10 07:07:14;;;;;;;9.40;1.77;;;;;;;7.73;100.00;99164.97;5125874;28;20126;-77
2023/12/10 07:09:44;;;;;;;7.78;1.33;;;;;;;7.69;100.00;99168.63;5144617;28;20031;-78
2023/12/10 07:12:15;;;;;;;5.93;1.30;;;;;;;7.76;100.00;99164.81;5149079;28;20047;-78
2023/12/10 07:14:45;;;;;;;7.28;1.23;;;;;;;7.80;100.00;99167.19;5147930;28;20019;-76
2023/12/10 07:17:15;;;;;;;6.55;1.20;;;;;;;7.78;100.00;99178.56;5146282;28;20033;-77
2023/12/10 07:19:46;;;;;;;10.27;1.40;;;;;;;7.72;100.00;99174.50;5128039;28;20482;-77
2023/12/10 07:22:16;;;;;;;10.90;1.58;;;;;;;7.70;100.00;99184.13;5146897;28;20029;-77
2023/12/10 07:24:46;;;;;;;10.02;1.77;;;;;;;7.69;100.00;99185.03;5147239;28;20042;-76
2023/12/10 07:27:17;;;;;;;9.73;1.50;;;;;;;7.67;100.00;99184.28;5149962;28;20300;-77
2023/12/10 07:29:48;;;;;;;8.27;1.45;;;;;;;7.69;100.00;99184.22;5152121;28;20022;-78
2023/12/10 07:32:18;;;;;;;6.45;1.73;;;;;;;7.81;100.00;99176.69;5148090;28;20030;-76
2023/12/10 07:34:48;;;;;;;9.38;2.58;;;;;;;7.72;100.00;99194.47;5149833;28;20030;-76
2023/12/10 07:37:18;;;;;;;10.20;3.20;;;;;;;7.74;100.00;99190.88;5130299;28;20031;-78
2023/12/10 07:39:49;;;;;;;19.20;5.13;;;;;;;7.68;100.00;99191.16;5145039;28;20035;-78
2023/12/10 07:42:19;;;;;;;15.02;3.42;;;;;;;7.66;100.00;99195.59;5139985;28;20062;-78
2023/12/10 07:44:49;;;;;;;11.35;2.90;;;;;;;7.72;100.00;99190.09;5144295;28;20042;-78
2023/12/10 07:47:20;;;;;;;12.00;2.65;;;;;;;7.66;100.00;99190.41;5132441;28;20037;-77
2023/12/10 07:49:50;;;;;;;15.85;3.83;;;;;;;7.66;100.00;99200.78;5147166;28;20030;-77
2023/12/10 07:52:20;;;;;;;11.05;2.13;;;;;;;7.66;100.00;99211.19;5147913;28;20393;-77
2023/12/10 07:54:51;;;;;;;9.77;1.60;;;;;;;7.65;100.00;99214.72;5148661;28;20492;-78
2023/12/10 07:57:21;;;;;;;3.95;1.15;;;;;;;7.66;100.00;99210.38;5134137;28;20396;-77
2023/12/10 07:59:51;;;;;;;6.72;1.60;;;;;;;7.57;100.00;99221.16;5136753;28;20043;-78
2023/12/10 08:02:22;;;;;;;7.90;1.25;;;;;;;7.52;100.00;99216.16;5141042;28;20034;-75
2023/12/10 08:04:52;;;;;;;5.38;0.98;;;;;;;7.42;100.00;99214.91;5138694;28;20093;-76
2023/12/10 08:07:22;;;;;;;6.82;1.15;;;;;;;7.44;100.00;99220.88;5141133;28;20035;-75
2023/12/10 08:09:53;;;;;;;5.95;0.95;;;;;;;7.52;100.00;99218.78;5143863;28;20125;-76
2023/12/10 08:12:23;;;;;;;8.35;1.42;;;;;;;7.50;100.00;99211.97;5141184;28;20031;-75
2023/12/10 08:14:54;;;;;;;5.88;1.13;;;;;;;7.45;100.00;99216.50;5140778;28;20077;-76
2023/12/10 08:17:24;;;;;;;7.38;1.40;;;;;;;7.47;100.00;99209.47;5140563;28;20027;-73
2023/12/10 08:19:54;;;;;;;6.18;1.05;;;;;;;7.42;100.00;99217.50;5141878;28;20030;-76
2023/12/10 08:22:25;;;;;;;7.35;1.40;;;;;;;7.41;100.00;99226.22;5139310;28;20064;-75
2023/12/10 08:24:55;;;;;;;5.25;0.80;;;;;;;7.41;100.00;99223.63;5142451;28;20046;-74
2023/12/10 08:27:25;;;;;;;8.98;1.35;;;;;;;7.42;100.00;99227.91;5145059;28;20484;-75
2023/12/10 08:29:56;;;;;;;6.15;1.00;;;;;;;7.48;100.00;99225.03;5148482;28;20045;-77
2023/12/10 08:32:27;;;;;;;10.13;1.48;;;;;;;7.48;100.00;99239.75;5131275;28;20034;-76
2023/12/10 08:34:57;;;;;;;6.80;1.20;;;;;;;7.40;100.00;99234.94;5151189;28;20672;-76
2023/12/10 08:37:28;;;;;;;4.25;1.48;;;;;;;7.44;100.00;99235.63;5150938;28;20065;-76
2023/12/10 08:39:59;;;;;;;4.30;1.33;;;;;;;7.45;100.00;99227.75;5146585;28;20081;-76
2023/12/10 08:42:30;;;;;;;4.78;0.98;;;;;;;7.48;100.00;99230.22;5149451;28;20037;-76
2023/12/10 08:45:00;;;;;;;4.68;0.90;;;;;;;7.47;100.00;99236.34;5144559;28;20026;-76
2023/12/10 08:47:31;;;;;;;5.03;0.80;;;;;;;7.51;100.00;99234.44;5150382;28;20033;-75
2023/12/10 08:50:02;;;;;;;6.28;0.93;;;;;;;7.46;100.00;99237.25;5133526;28;20030;-73
2023/12/10 08:52:33;;;;;;;4.15;0.80;;;;;;;7.43;100.00;99239.13;5150982;28;20038;-75
2023/12/10 08:55:04;;;;;;;6.13;1.02;;;;;;;7.46;100.00;99247.63;5149771;28;20113;-75
2023/12/10 08:57:34;;;;;;;5.90;1.00;;;;;;;7.42;100.00;99240.91;5134110;28;20499;-73
2023/12/10 09:00:05;;;;;;;6.97;0.90;;;;;;;7.48;100.00;99248.41;5150711;28;20105;-76
2023/12/10 09:02:35;;;;;;;5.05;1.30;;;;;;;7.48;100.00;99250.16;5139856;28;20141;-72
2023/12/10 09:05:06;;;;;;;7.30;1.10;;;;;;;7.52;100.00;99249.97;5129103;28;20018;-77
2023/12/10 09:07:36;;;;;;;3.85;0.90;;;;;;;7.53;100.00;99251.63;5137168;28;20030;-75
2023/12/10 09:10:07;;;;;;;6.03;1.23;;;;;;;7.53;100.00;99251.63;5149488;28;20033;-73
2023/12/10 09:12:38;;;;;;;4.45;1.08;;;;;;;7.45;100.00;99255.50;5146857;28;20054;-75
2023/12/10 09:15:09;;;;;;;5.43;0.88;;;;;;;7.55;100.00;99255.00;5123414;28;20388;-74
2023/12/10 09:17:39;;;;;;;4.75;0.90;;;;;;;7.46;100.00;99260.63;5133727;28;20066;-76
2023/12/10 09:20:10;;;;;;;7.25;1.00;;;;;;;7.47;100.00;99258.88;5127192;28;20067;-75
2023/12/10 09:22:41;;;;;;;5.55;1.88;;;;;;;7.48;100.00;99253.63;5137880;28;20092;-76
2023/12/10 09:25:12;;;;;;;6.75;1.15;;;;;;;7.47;100.00;99256.25;5097258;28;20093;-74
2023/12/10 09:27:42;;;;;;;4.85;1.10;;;;;;;7.52;100.00;99260.34;5118371;28;20058;-76
2023/12/10 09:30:12;;;;;;;5.95;1.25;;;;;;;7.56;100.00;99255.88;5132107;28;20026;-75
2023/12/10 09:32:44;;;;;;;5.47;1.02;;;;;;;7.46;100.00;99260.63;5129305;28;20072;-76
2023/12/10 09:35:14;;;;;;;5.63;1.73;;;;;;;7.45;100.00;99250.28;5105547;28;20309;-72
2023/12/10 09:37:44;;;;;;;6.82;1.25;;;;;;;7.53;100.00;99249.03;5132719;28;20446;-76
2023/12/10 09:40:15;;;;;;;9.70;1.55;;;;;;;7.56;100.00;99242.88;5135254;28;20058;-72
2023/12/10 09:42:45;;;;;;;7.07;1.15;;;;;;;7.50;100.00;99258.75;5140082;28;20049;-76
2023/12/10 09:45:16;;;;;;;6.25;1.00;;;;;;;7.46;100.00;99250.25;5114351;28;20030;-74
2023/12/10 09:47:47;;;;;;;3.95;1.20;;;;;;;7.49;100.00;99257.06;5118541;28;20110;-76
2023/12/10 09:50:21;;;;;;;4.93;0.90;;;;;;;7.55;100.00;99260.22;5136031;28;20420;-75
2023/12/10 09:52:53;;;;;;;6.43;1.33;;;;;;;7.55;100.00;99265.41;5132815;28;20062;-73
2023/12/10 09:55:24;;;;;;;6.32;1.10;;;;;;;7.54;100.00;99263.72;5124833;28;20047;-75
2023/12/10 09:57:54;;;;;;;5.32;0.98;;;;;;;7.54;100.00;99268.91;5139904;28;20135;-78
2023/12/10 10:00:25;;;;;;;5.43;1.30;;;;;;;7.50;100.00;99271.75;5136400;28;20042;-74
2023/12/10 10:03:01;;;;;;;5.35;1.23;;;;;;;7.50;100.00;99277.78;5138075;28;20053;-78
2023/12/10 10:05:33;;;;;;;;;;;;;;;7.49;100.00;99281.28;5115026;28;20027;-74
2023/12/10 10:08:03;;;;;;;7.05;1.92;;;;;;;7.58;100.00;99275.69;5133612;28;19936;-78
2023/12/10 10:10:33;;;;;;;7.35;1.23;;;;;;;7.60;100.00;99278.22;5140121;28;20503;-78
2023/12/10 10:13:07;;;;;;;9.30;2.20;;;;;;;7.60;100.00;99284.28;5138242;28;20034;-78
2023/12/10 10:15:37;;;;;;;13.57;2.30;;;;;;;7.65;100.00;99277.09;5137780;28;20698;-78
2023/12/10 10:18:10;;;;;;;9.32;2.70;;;;;;;7.73;100.00;99279.34;5130855;28;20227;-75
2023/12/10 10:20:43;;;;;;;11.63;3.15;;;;;;;7.78;100.00;99282.59;5136797;28;20038;-78
2023/12/10 10:23:14;;;;;;;13.30;2.05;;;;;;;7.79;100.00;99294.69;5140413;28;20065;-78
2023/12/10 10:25:45;;;;;;;9.77;2.58;;;;;;;7.79;100.00;99295.53;5121773;28;20389;-78
2023/12/10 10:28:16;;;;;;;7.32;1.83;;;;;;;7.77;100.00;99273.97;5128033;28;20077;-76
2023/12/10 10:30:47;;;;;;;10.55;1.90;;;;;;;7.83;100.00;99284.06;5136326;28;20035;-76
2023/12/10 10:33:17;;;;;;;10.88;1.80;;;;;;;7.77;100.00;99286.97;5142065;28;20114;-78
2023/12/10 10:35:49;;;;;;;6.80;1.50;;;;;;;7.77;100.00;99286.97;5138213;28;20053;-78
2023/12/10 10:38:23;;;;;;;11.13;2.22;;;;;;;7.84;100.00;99293.56;5141711;28;20050;-78
2023/12/10 10:40:55;;;;;;;6.47;1.63;;;;;;;7.90;100.00;99285.47;5139263;28;20055;-79
2023/12/10 10:43:26;;;;;;;8.70;1.67;;;;;;;7.83;100.00;99291.88;5121665;28;20282;-76
2023/12/10 10:45:56;;;;;;;10.13;1.63;;;;;;;7.88;100.00;99295.09;5122896;28;20124;-79
2023/12/10 10:48:28;;;;;;;9.95;1.40;;;;;;;7.93;100.00;99282.75;5146814;28;20113;-77
2023/12/10 10:50:59;;;;;;;9.40;2.22;;;;;;;7.89;100.00;99294.19;5144950;28;20041;-78
2023/12/10 10:53:29;;;;;;;12.05;2.20;;;;;;;7.96;100.00;99284.34;5129082;28;20031;-78
2023/12/10 10:56:02;;;;;;;10.90;2.05;;;;;;;8.05;100.00;99287.38;5128012;28;20040;-79
2023/12/10 10:58:33;;;;;;;10.07;1.90;;;;;;;8.11;100.00;99288.84;5122449;28;20051;-78
2023/12/10 11:01:04;;;;;;;6.88;1.70;;;;;;;8.18;100.00;99288.53;5143521;28;20136;-78
2023/12/10 11:03:34;;;;;;;8.25;2.08;;;;;;;8.19;100.00;99290.22;5142553;28;20400;-78
2023/12/10 11:06:09;;;;;;;10.80;1.90;;;;;;;8.26;100.00;99291.66;5141169;28;20425;-78
2023/12/10 11:08:55;;;;;;;13.13;1.90;;;;;;;8.29;100.00;99288.91;5137639;28;20023;-78
2023/12/10 11:11:26;;;;;;;7.75;1.70;;;;;;;8.32;100.00;99293.94;5124836;28;20038;-76
2023/12/10 11:13:56;;;;;;;13.98;2.65;;;;;;;8.42;100.00;99303.00;5111463;28;20053;-79
2023/12/10 11:16:27;;;;;;;11.88;2.17;;;;;;;8.47;100.00;99301.03;5142207;28;20026;-78
2023/12/10 11:18:58;;;;;;;7.10;1.55;;;;;;;8.61;100.00;99298.63;5141411;28;20026;-78
2023/12/10 11:21:29;;;;;;;9.10;1.70;;;;;;;8.62;100.00;99310.72;5140097;28;20455;-75
2023/12/10 11:23:59;;;;;;;10.45;1.90;;;;;;;8.57;100.00;99307.47;5131765;28;20041;-78
2023/12/10 11:26:30;;;;;;;12.02;2.30;;;;;;;8.54;100.00;99307.63;5139407;28;20046;-78
2023/12/10 11:29:03;;;;;;;14.73;2.10;;;;;;;8.55;100.00;99306.72;5141990;28;20038;-79
2023/12/10 11:31:35;;;;;;;12.50;2.47;;;;;;;8.55;100.00;99318.91;5137069;28;20087;-79
2023/12/10 11:34:05;;;;;;;6.95;1.50;;;;;;;8.54;100.00;99325.03;5127923;28;20097;-78
2023/12/10 11:36:36;;;;;;;10.15;1.70;;;;;;;8.57;100.00;99325.72;5125969;28;20030;-78
2023/12/10 11:39:16;;;;;;;8.48;1.50;;;;;;;8.57;100.00;99327.47;5122475;28;20581;-79
2023/12/10 11:41:46;;;;;;;10.38;2.17;;;;;;;8.46;100.00;99332.34;5139543;28;20038;-79
2023/12/10 11:44:16;;;;;;;10.38;1.55;;;;;;;8.45;100.00;99334.13;5138162;28;20038;-77